Breton, Canada
Current Conditions -  °F | °C
As of 9:00 AM on Sunday 25 Jan 2015 (Local Time) from CYEG Reporting Station
Broken Clouds Broken Clouds  
Wind Chill: 34°   Ceiling: 21000
Heat Index: 34°   Visibility: 15mi
Dew Point: 28°   Wind: 3mph
Humidity: 81%   Direction: 180°S
Pressure: 29.66"   Gusts: NA
Location:  53.12°N, 114.48°W
Report Text: CYEG 251600Z 18003KT 15SM SCT130 SCT160 BKN210 01/M02 A2966 RMK AC3AC1CI2 HIER AC TR SLP071
Loading
Personal Weather Stations






























Interactive Weather Map New forecast layout! Learn more

10-Day Weather Forecast

Advertisements
Track Severe Weather on mobile